Latest Weather Observations for Murrurundi Gap

IDN60801

Issued at 10:05 pm EST Monday 22 September 2014 (issued every 30 minutes, with the page automatically refreshed every 10 minutes)

About weather observations | Map of weather stations | Latest weather observations for NSW | Other Formats
Station Details ID: 061392 Name: MURRURUNDI GAP AWS Lat: -31.74 Lon: 150.79 Height: 729.4 m
Data from the previous 72 hours. | See also: Recent months for locations in New South Wales
Date/Time
EST
Temp
°C
App
Temp
°C
Dew
Point
Rel
Hum
%
Delta-T
°C
Wind Press
QNH
hPa
Press
MSL
hPa
Rain
since 9 am
mm
Dir
 
Spd
km/h
Gust
km/h
Spd
kts
Gust
kts
22/10:00pm 10.5 4.9 5.3 70 2.5 SSE 24 30 13 16 1029.4 1028.2 0.0
22/09:30pm 10.4 5.6 5.8 73 2.2 SE 20 24 11 13 1029.3 1028.1 0.0
22/09:00pm 11.2 6.0 5.5 68 2.7 SSE 22 30 12 16 1029.3 1028.1 0.0
22/08:30pm 12.2 6.3 5.8 65 3.1 S 26 32 14 17 1029.3 1028.1 0.0
22/08:00pm 12.7 7.1 5.6 62 3.4 S 24 32 13 17 1029.3 1028.1 0.0
22/07:30pm 13.1 7.5 5.5 60 3.7 SSE 24 32 13 17 1028.8 1027.7 0.0
22/07:00pm 13.4 7.5 5.6 59 3.8 SSE 26 32 14 17 1028.6 1027.4 0.0
22/06:30pm 13.3 8.1 5.7 60 3.7 SE 22 30 12 16 1028.4 1027.2 0.0
22/06:00pm 13.7 8.9 5.6 58 4.0 SSE 20 32 11 17 1028.2 1027.0 0.0
22/05:30pm 14.4 8.5 5.7 56 4.3 S 26 33 14 18 1027.9 1026.7 0.0
22/05:00pm 14.9 10.2 6.0 55 4.4 SSE 20 28 11 15 1027.7 1026.5 0.0
22/04:30pm 15.7 11.0 5.9 52 4.9 S 20 30 11 16 1027.7 1026.5 0.0
22/04:00pm 16.5 11.9 5.8 49 5.3 SSE 19 28 10 15 1027.3 1026.1 0.0
22/03:30pm 16.3 11.0 5.0 47 5.6 SE 22 33 12 18 1027.3 1026.1 0.0
22/03:00pm 16.8 11.4 4.5 44 6.0 SE 22 30 12 16 1027.7 1026.5 0.0
22/02:30pm 17.3 12.6 5.3 45 6.0 SE 19 24 10 13 1027.9 1026.7 0.0
22/02:00pm 17.8 13.8 6.7 48 5.7 SE 17 24 9 13 1028.1 1026.9 0.0
22/01:30pm 16.5 10.7 4.5 45 5.9 SE 24 35 13 19 1028.3 1027.1 0.0
22/01:00pm 16.5 11.2 4.9 46 5.7 ESE 22 32 12 17 1028.6 1027.4 0.0
22/12:30pm 16.8 12.2 6.6 51 5.2 ESE 20 32 11 17 1029.2 1028.0 0.0
22/12:00pm 16.1 11.4 6.0 51 5.0 ESE 20 32 11 17 1029.8 1028.6 0.0
22/11:30am 15.0 9.7 5.2 52 4.8 SE 22 32 12 17 1030.1 1029.0 0.0
22/11:00am 15.4 11.8 8.2 62 3.7 SE 17 20 9 11 1030.7 1029.5 0.0
22/10:30am 13.4 8.8 6.7 64 3.4 SSE 20 30 11 16 1031.1 1029.9 0.0
22/10:00am 12.9 7.5 6.5 65 3.2 ESE 24 32 13 17 1031.3 1030.2 0.0
22/09:30am 12.3 6.8 5.9 65 3.1 SE 24 32 13 17 1031.3 1030.2 0.0
22/09:00am 12.2 7.9 7.7 74 2.3 SE 20 24 11 13 1031.5 1030.4 0.0
22/08:30am 10.8 6.6 7.5 80 1.7 ESE 19 24 10 13 1031.4 1030.3 0.0
22/08:00am 10.1 6.3 7.5 84 1.3 ESE 17 22 9 12 1031.3 1030.2 0.0
22/07:30am 8.5 4.6 7.3 92 0.6 ESE 17 20 9 11 1031.1 1029.9 0.0
22/07:16am 7.4 3.4 6.7 95 0.3 ESE 17 20 9 11 1030.9 1029.7 0.0
22/07:00am 7.0 3.4 6.9 99 0.0 ESE 15 20 8 11 1030.8 1029.6 0.0
22/06:30am 5.9 1.7 5.8 99 0.0 SE 17 20 9 11 1030.3 1029.2 0.0
22/06:17am 5.4 0.7 5.3 99 0.0 SE 19 20 10 11 1030.0 1028.9 0.0
22/06:00am 5.1 0.3 4.8 98 0.1 ESE 19 20 10 11 1029.7 1028.5 0.0
22/05:30am 5.7 1.0 5.0 95 0.3 SE 19 22 10 12 1029.4 1028.2 0.0
22/05:00am 7.2 2.2 6.5 95 0.3 SE 22 26 12 14 1029.0 1027.8 0.0
22/04:30am 5.9 0.6 5.0 94 0.4 SE 22 30 12 16 1028.4 1027.2 0.0
22/04:00am 6.1 1.3 5.4 95 0.3 SE 20 28 11 15 1028.3 1027.1 0.0
22/03:30am 6.5 1.8 5.9 96 0.3 SE 20 24 11 13 1028.1 1026.9 0.0
22/03:00am 7.0 1.0 5.3 89 0.8 SSE 26 32 14 17 1028.1 1026.9 0.0
22/02:30am 8.3 1.3 6.1 86 1.0 SSE 32 37 17 20 1028.1 1026.9 0.0
22/02:00am 8.6 2.0 6.2 85 1.1 SSE 30 35 16 19 1028.5 1027.3 0.0
22/01:30am 8.9 1.8 6.2 83 1.3 SSE 33 41 18 22 1028.5 1027.3 0.0
22/01:00am 9.1 2.2 6.4 83 1.3 SSE 32 39 17 21 1028.6 1027.4 0.0
22/12:30am 9.1 1.6 6.4 83 1.3 SSE 35 41 19 22 1028.7 1027.5 0.0
22/12:00am 9.4 2.6 6.7 83 1.3 SE 32 37 17 20 1029.0 1027.8 0.0
 
Date/Time
EST
Temp
°C
App
Temp
°C
Dew
Point
Rel
Hum
%
Delta-T
°C
Wind Press
QNH
hPa
Press
MSL
hPa
Rain
since 9 am
mm
Dir
 
Spd
km/h
Gust
km/h
Spd
kts
Gust
kts
21/11:30pm 9.3 3.2 6.6 83 1.3 SSE 28 32 15 17 1029.2 1028.0 0.0
21/11:00pm 9.2 2.7 6.3 82 1.4 SE 30 35 16 19 1029.1 1027.9 0.0
21/10:30pm 10.0 3.0 6.2 77 1.8 SE 32 37 17 20 1029.1 1027.9 0.0
21/10:00pm 10.2 4.7 5.8 74 2.1 SE 24 30 13 16 1029.3 1028.1 0.0
21/09:30pm 10.4 4.5 5.8 73 2.2 ESE 26 30 14 16 1029.0 1027.8 0.0
21/09:00pm 10.9 5.4 5.9 71 2.4 SE 24 28 13 15 1029.0 1027.8 0.0
21/08:30pm 10.9 5.3 5.4 69 2.6 SE 24 28 13 15 1028.6 1027.4 0.0
21/08:00pm 11.5 5.9 5.6 67 2.8 SSE 24 30 13 16 1028.5 1027.3 0.0
21/07:30pm 12.3 5.5 5.0 61 3.5 SSE 30 39 16 21 1028.2 1027.0 0.0
21/07:00pm 12.8 6.0 5.0 59 3.7 SE 30 39 16 21 1027.9 1026.7 0.0
21/06:30pm 12.8 8.0 5.7 62 3.5 SE 20 24 11 13 1027.3 1026.1 0.0
21/06:00pm 13.2 8.9 5.4 59 3.8 SSE 17 24 9 13 1027.0 1025.8 0.0
21/05:30pm 14.1 9.3 5.5 56 4.2 SE 20 26 11 14 1026.5 1025.3 0.0
21/05:00pm 14.4 9.8 5.5 55 4.4 SE 19 32 10 17 1026.3 1025.0 0.0
21/04:30pm 14.6 9.0 5.4 54 4.5 SSE 24 32 13 17 1026.2 1024.9 0.0
21/04:00pm 15.0 10.2 5.5 53 4.7 SE 20 26 11 14 1026.3 1025.0 0.0
21/03:30pm 15.0 10.2 5.5 53 4.7 S 20 28 11 15 1026.5 1025.3 0.0
21/03:00pm 15.1 9.2 5.6 53 4.7 SSE 26 37 14 20 1025.8 1024.6 0.0
21/02:30pm 15.9 10.1 6.3 53 4.9 SSE 26 37 14 20 1025.8 1024.6 0.0
21/02:00pm 15.0 9.5 6.0 55 4.5 SSE 24 35 13 19 1026.4 1025.1 0.0
21/01:30pm 15.1 9.6 5.9 54 4.6 SE 24 35 13 19 1026.8 1025.6 0.0
21/01:00pm 15.9 10.7 5.5 50 5.1 SE 22 32 12 17 1027.6 1026.3 0.0
21/12:30pm 15.5 10.8 6.0 53 4.8 SE 20 30 11 16 1028.1 1026.9 0.0
21/12:00pm 14.9 10.6 7.2 60 3.9 SSE 19 26 10 14 1028.3 1027.1 0.0
21/11:30am 14.7 10.1 6.3 57 4.2 SSE 20 30 11 16 1028.5 1027.3 0.0
21/11:00am 14.5 7.5 5.8 56 4.3 ESE 32 44 17 24 1028.6 1027.4 0.0
21/10:30am 13.4 7.2 6.0 61 3.7 SE 28 43 15 23 1028.7 1027.5 0.0
21/10:00am 12.7 6.9 6.1 64 3.2 SE 26 35 14 19 1029.0 1027.8 0.0
21/09:30am 12.6 5.9 5.8 63 3.3 SE 30 37 16 20 1029.2 1028.0 0.0
21/09:00am 11.3 4.5 5.2 66 2.9 SE 30 39 16 21 1028.7 1027.5 0.0
21/08:30am 10.5 4.0 4.9 68 2.6 SE 28 37 15 20 1028.7 1027.5 0.0
21/08:00am 9.5 3.3 6.2 80 1.6 SE 28 35 15 19 1028.5 1027.3 0.0
21/07:30am 6.9 0.9 5.5 91 0.7 SE 26 33 14 18 1028.2 1027.0 0.0
21/07:00am 5.9 -0.9 5.0 94 0.4 SE 30 39 16 21 1027.6 1026.3 0.0
21/06:59am 6.1 -1.1 5.1 93 0.5 SE 32 39 17 21 1027.7 1026.5 0.0
21/06:30am 4.8 -2.6 4.1 95 0.3 SE 32 43 17 23 1027.2 1026.0 0.0
21/06:27am 5.4 -1.9 4.4 93 0.4 SE 32 43 17 23 1027.1 1025.9 0.0
21/06:21am 5.9 -1.5 5.0 94 0.4 SE 33 43 18 23 1027.0 1025.8 0.0
21/06:00am 4.6 -2.7 4.5 99 0.0 SE 32 39 17 21 1026.9 1025.7 0.0
21/05:30am 4.6 -2.4 4.2 97 0.2 SE 30 35 16 19 1026.6 1025.4 0.0
21/05:00am 5.0 -1.8 4.9 99 0.0 SE 30 39 16 21 1026.3 1025.0 0.0
21/04:33am 5.4 -2.1 4.4 93 0.4 SSE 33 41 18 22 1026.3 1025.0 0.0
21/04:30am 5.6 -2.3 4.4 92 0.5 SSE 35 41 19 22 1026.2 1024.9 0.0
21/04:00am 5.9 -1.4 5.6 98 0.1 SSE 33 41 18 22 1025.8 1024.6 0.0
21/03:30am 5.7 -1.6 5.4 98 0.1 SSE 33 39 18 21 1025.4 1024.2 0.0
21/03:00am 6.4 -1.3 5.5 94 0.4 SE 35 41 19 22 1025.7 1024.5 0.0
21/02:30am 6.2 -1.5 5.5 95 0.3 SE 35 43 19 23 1025.9 1024.7 0.0
21/02:00am 5.6 -1.2 5.2 97 0.2 SE 30 37 16 20 1026.4 1025.1 0.0
21/01:30am 6.2 -1.2 5.2 93 0.5 SE 33 41 18 22 1026.6 1025.4 0.0
21/01:00am 6.6 -1.0 5.6 93 0.5 SE 35 43 19 23 1026.4 1025.1 0.0
21/12:30am 7.1 -0.6 5.3 88 0.8 SE 35 44 19 24 1026.3 1025.0 0.0
21/12:00am 7.5 -1.0 5.3 86 1.0 SSE 39 44 21 24 1025.8 1024.6 0.0
 
Date/Time
EST
Temp
°C
App
Temp
°C
Dew
Point
Rel
Hum
%
Delta-T
°C
Wind Press
QNH
hPa
Press
MSL
hPa
Rain
since 9 am
mm
Dir
 
Spd
km/h
Gust
km/h
Spd
kts
Gust
kts
20/11:30pm 7.8 -0.4 4.7 81 1.4 SE 37 44 20 24 1025.8 1024.6 0.0
20/11:00pm 7.9 0.0 4.1 77 1.7 SE 35 41 19 22 1025.8 1024.6 0.0
20/10:30pm 8.2 0.7 3.7 73 2.0 SE 32 37 17 20 1025.8 1024.6 0.0
20/10:00pm 9.1 1.9 3.1 66 2.7 SE 30 37 16 20 1025.8 1024.6 0.0
20/09:30pm 9.1 2.9 2.0 61 3.1 SE 24 32 13 17 1025.7 1024.5 0.0
20/09:00pm 10.4 5.0 2.3 57 3.6 SE 20 26 11 14 1025.7 1024.5 0.0
20/08:30pm 10.0 4.4 0.9 53 3.9 SE 20 30 11 16 1025.5 1024.3 0.0
20/08:00pm 11.4 4.3 1.1 49 4.5 SSE 28 32 15 17 1025.2 1024.0 0.0
20/07:30pm 11.3 5.2 0.7 48 4.6 SE 22 26 12 14 1025.1 1023.8 0.0
20/07:00pm 11.8 6.2 1.2 48 4.6 SE 20 24 11 13 1024.8 1023.5 0.0
20/06:30pm 12.6 6.2 0.7 44 5.2 SE 24 30 13 16 1024.2 1023.0 0.0
20/06:00pm 13.0 6.9 0.4 42 5.5 SSE 22 28 12 15 1023.8 1022.5 0.0
20/05:30pm 13.4 7.7 0.4 41 5.7 SE 20 28 11 15 1023.4 1022.1 0.0
20/05:00pm 14.1 7.9 0.0 38 6.1 SSE 22 30 12 16 1022.8 1021.6 0.0
20/04:30pm 14.8 8.2 -0.1 36 6.5 SSE 24 35 13 19 1022.3 1021.0 0.0
20/04:00pm 15.2 8.5 -0.9 33 6.9 SSE 24 32 13 17 1022.1 1020.8 0.0
20/03:30pm 15.9 10.4 -2.1 29 7.6 S 17 24 9 13 1022.0 1020.7 0.0
20/03:00pm 16.1 10.5 -2.9 27 7.9 SSE 17 20 9 11 1022.0 1020.7 0.0
20/02:30pm 16.2 10.6 -2.8 27 8.0 SSE 17 30 9 16 1022.1 1020.8 0.0
20/02:00pm 16.5 10.5 -3.0 26 8.1 SE 19 26 10 14 1022.0 1020.7 0.0
20/01:30pm 16.6 12.1 -3.5 25 8.3 SE 11 19 6 10 1022.2 1020.9 0.0
20/01:00pm 16.2 10.2 -3.3 26 8.1 E 19 30 10 16 1022.4 1021.1 0.0
20/12:30pm 16.1 10.6 -1.9 29 7.7 ESE 17 28 9 15 1022.6 1021.3 0.0
20/12:00pm 15.8 9.9 -2.2 29 7.6 SSE 19 22 10 12 1022.9 1021.7 0.0
20/11:30am 15.6 10.1 -1.9 30 7.4 SSE 17 24 9 13 1023.2 1021.9 0.0
20/11:00am 15.9 11.5 0.1 34 7.0 SE 13 20 7 11 1023.5 1022.2 0.0
20/10:30am 14.1 9.5 -1.1 35 6.5 E 13 20 7 11 1023.7 1022.4 0.0
20/10:00am 13.5 9.2 0.9 42 5.6 ESE 13 19 7 10 1023.8 1022.5 0.0
20/09:30am 12.6 7.7 -0.3 41 5.5 ESE 15 20 8 11 1024.0 1022.8 0.0
20/09:00am 11.5 6.4 0.9 48 4.6 ESE 17 19 9 10 1024.1 1022.9 0.0
20/08:30am 10.9 5.6 2.0 54 4.0 ESE 19 20 10 11 1023.9 1022.6 0.0
20/08:00am 9.1 3.6 0.8 56 3.5 ESE 19 22 10 12 1023.7 1022.4 0.0
20/07:30am 8.4 3.3 0.9 59 3.2 ESE 17 20 9 11 1023.4 1022.1 0.0
20/07:00am 7.0 1.4 -0.2 60 2.9 ESE 19 20 10 11 1022.9 1021.7 0.0
20/06:30am 5.8 0.1 -0.5 64 2.5 SE 19 20 10 11 1022.5 1021.2 0.0
20/06:00am 4.7 -1.0 -0.7 68 2.1 SE 19 22 10 12 1022.1 1020.8 0.0
20/05:30am 4.3 -1.4 -0.5 71 1.9 SE 19 20 10 11 1021.5 1020.2 0.0
20/05:00am 4.5 -0.9 -1.1 67 2.2 SE 17 20 9 11 1021.0 1019.7 0.0
20/04:30am 5.2 -0.6 -1.5 62 2.6 SE 19 20 10 11 1020.7 1019.4 0.0
20/04:00am 5.4 0.0 -1.7 60 2.7 SE 17 22 9 12 1020.5 1019.2 0.0
20/03:30am 6.6 1.1 -1.8 55 3.3 SE 17 20 9 11 1020.3 1018.9 0.0
20/03:00am 6.8 2.4 -2.1 53 3.4 ESE 11 13 6 7 1020.5 1019.2 0.0
20/02:30am 7.8 3.8 -2.5 48 4.0 SSE 9 11 5 6 1020.7 1019.4 0.0
20/02:00am 7.6 3.6 -2.4 49 3.9 SE 9 9 5 5 1020.9 1019.6 0.0
20/01:30am 7.8 3.8 -2.5 48 4.0 SE 9 9 5 5 1021.1 1019.8 0.0
20/01:00am 8.1 4.5 -2.2 48 4.0 SE 7 7 4 4 1021.3 1020.0 0.0
20/12:30am 8.2 4.6 -2.1 48 4.0 SSE 7 11 4 6 1021.4 1020.1 0.0
20/12:00am 7.5 3.9 -2.2 50 3.8 ESE 7 9 4 5 1021.7 1020.4 0.0
 
Date/Time
EST
Temp
°C
App
Temp
°C
Dew
Point
Rel
Hum
%
Delta-T
°C
Wind Press
QNH
hPa
Press
MSL
hPa
Rain
since 9 am
mm
Dir
 
Spd
km/h
Gust
km/h
Spd
kts
Gust
kts
19/11:30pm 7.9 5.6 -2.4 48 4.0 CALM 0 6 0 3 1021.7 1020.4 0.0
19/11:00pm 7.7 2.9 -2.3 49 3.9 SSE 13 13 7 7 1021.5 1020.2 0.0
19/10:30pm 8.0 3.2 -2.6 47 4.1 SE 13 15 7 8 1021.7 1020.4 0.0

Other Formats:

Comma delimited format used in spreadsheet applications
http://www.bom.gov.au/fwo/IDN60801/IDN60801.95747.axf

JavaScript Object Notation format (JSON) in row-major order
http://www.bom.gov.au/fwo/IDN60801/IDN60801.95747.json